sensor_id;sensor_type;location;lat;lon;timestamp;P1;durP1;ratioP1;P2;durP2;ratioP2
52396;SDS011;38322;53.108;6.308;2022-07-23T05:02:40;6.43;;;5.22;;
52396;SDS011;38322;53.108;6.308;2022-07-23T05:05:06;7.97;;;4.65;;
52396;SDS011;38322;53.108;6.308;2022-07-23T05:07:32;5.40;;;4.10;;
52396;SDS011;38322;53.108;6.308;2022-07-23T05:09:58;8.98;;;5.57;;
52396;SDS011;38322;53.108;6.308;2022-07-23T05:12:24;8.95;;;5.38;;
52396;SDS011;38322;53.108;6.308;2022-07-23T05:14:50;8.35;;;5.47;;
52396;SDS011;38322;53.108;6.308;2022-07-23T05:17:17;4.85;;;4.35;;
52396;SDS011;38322;53.108;6.308;2022-07-23T05:19:43;7.40;;;4.75;;
52396;SDS011;38322;53.108;6.308;2022-07-23T05:22:09;7.75;;;5.15;;
52396;SDS011;38322;53.108;6.308;2022-07-23T05:24:35;6.38;;;4.43;;
52396;SDS011;38322;53.108;6.308;2022-07-23T05:27:01;10.02;;;4.43;;
52396;SDS011;38322;53.108;6.308;2022-07-23T05:29:26;7.32;;;4.93;;
52396;SDS011;38322;53.108;6.308;2022-07-23T05:31:52;5.20;;;4.45;;
52396;SDS011;38322;53.108;6.308;2022-07-23T05:34:18;5.70;;;4.70;;
52396;SDS011;38322;53.108;6.308;2022-07-23T05:36:44;6.88;;;4.97;;
52396;SDS011;38322;53.108;6.308;2022-07-23T05:39:10;10.88;;;5.90;;
52396;SDS011;38322;53.108;6.308;2022-07-23T05:41:36;5.93;;;5.35;;
52396;SDS011;38322;53.108;6.308;2022-07-23T05:44:02;7.90;;;4.55;;
52396;SDS011;38322;53.108;6.308;2022-07-23T05:46:27;7.68;;;4.20;;
52396;SDS011;38322;53.108;6.308;2022-07-23T05:48:53;7.97;;;5.22;;
52396;SDS011;38322;53.108;6.308;2022-07-23T05:51:20;6.63;;;4.70;;
52396;SDS011;38322;53.108;6.308;2022-07-23T05:53:46;6.40;;;3.53;;
52396;SDS011;38322;53.108;6.308;2022-07-23T05:56:13;7.03;;;4.13;;
52396;SDS011;38322;53.108;6.308;2022-07-23T05:58:39;4.25;;;3.80;;
52396;SDS011;38322;53.108;6.308;2022-07-23T06:01:04;6.88;;;3.67;;
52396;SDS011;38322;53.108;6.308;2022-07-23T06:03:30;6.97;;;3.40;;
52396;SDS011;38322;53.108;6.308;2022-07-23T06:05:56;7.10;;;4.00;;
52396;SDS011;38322;53.108;6.308;2022-07-23T06:08:22;5.13;;;3.33;;
52396;SDS011;38322;53.108;6.308;2022-07-23T06:10:47;4.88;;;2.72;;
52396;SDS011;38322;53.108;6.308;2022-07-23T06:13:13;2.40;;;1.77;;
52396;SDS011;38322;53.108;6.308;2022-07-23T06:15:39;5.28;;;1.95;;
52396;SDS011;38322;53.108;6.308;2022-07-23T06:18:05;5.22;;;1.67;;
52396;SDS011;38322;53.108;6.308;2022-07-23T06:20:31;6.57;;;1.10;;
52396;SDS011;38322;53.108;6.308;2022-07-23T06:22:57;1.88;;;1.35;;
52396;SDS011;38322;53.108;6.308;2022-07-23T06:25:22;5.97;;;1.48;;
52396;SDS011;38322;53.108;6.308;2022-07-23T06:27:48;4.93;;;1.98;;
52396;SDS011;38322;53.108;6.308;2022-07-23T06:30:15;3.38;;;1.77;;
52396;SDS011;38322;53.108;6.308;2022-07-23T06:32:42;3.83;;;1.58;;
52396;SDS011;38322;53.108;6.308;2022-07-23T06:35:09;3.25;;;2.05;;
52396;SDS011;38322;53.108;6.308;2022-07-23T06:37:34;4.03;;;1.88;;
52396;SDS011;38322;53.108;6.308;2022-07-23T06:40:00;3.10;;;1.50;;
52396;SDS011;38322;53.108;6.308;2022-07-23T06:42:26;3.50;;;1.48;;
52396;SDS011;38322;53.108;6.308;2022-07-23T06:44:52;2.13;;;1.30;;
52396;SDS011;38322;53.108;6.308;2022-07-23T06:47:18;2.03;;;1.33;;
52396;SDS011;38322;53.108;6.308;2022-07-23T06:49:44;4.05;;;2.35;;
52396;SDS011;38322;53.108;6.308;2022-07-23T06:52:10;2.92;;;1.08;;
52396;SDS011;38322;53.108;6.308;2022-07-23T06:54:35;1.45;;;1.00;;
52396;SDS011;38322;53.108;6.308;2022-07-23T06:57:01;2.67;;;1.55;;
52396;SDS011;38322;53.108;6.308;2022-07-23T06:59:27;2.47;;;1.17;;
52396;SDS011;38322;53.108;6.308;2022-07-23T07:01:53;1.95;;;0.73;;
52396;SDS011;38322;53.108;6.308;2022-07-23T07:04:19;4.25;;;1.02;;
52396;SDS011;38322;53.108;6.308;2022-07-23T07:06:45;4.05;;;0.90;;
52396;SDS011;38322;53.108;6.308;2022-07-23T07:09:11;2.90;;;0.50;;
52396;SDS011;38322;53.108;6.308;2022-07-23T07:11:36;3.15;;;0.38;;
52396;SDS011;38322;53.108;6.308;2022-07-23T07:14:02;1.55;;;0.63;;
52396;SDS011;38322;53.108;6.308;2022-07-23T07:16:29;0.95;;;0.22;;
52396;SDS011;38322;53.108;6.308;2022-07-23T07:18:55;2.83;;;0.95;;
52396;SDS011;38322;53.108;6.308;2022-07-23T07:21:21;1.33;;;0.40;;
52396;SDS011;38322;53.108;6.308;2022-07-23T07:23:46;3.83;;;0.38;;
52396;SDS011;38322;53.108;6.308;2022-07-23T07:26:12;1.15;;;0.25;;
52396;SDS011;38322;53.108;6.308;2022-07-23T07:28:38;1.73;;;0.50;;
52396;SDS011;38322;53.108;6.308;2022-07-23T07:31:04;1.50;;;0.22;;
52396;SDS011;38322;53.108;6.308;2022-07-23T07:33:30;0.45;;;0.32;;
52396;SDS011;38322;53.108;6.308;2022-07-23T07:35:56;1.17;;;0.30;;
52396;SDS011;38322;53.108;6.308;2022-07-23T07:38:22;3.70;;;0.20;;
52396;SDS011;38322;53.108;6.308;2022-07-23T07:40:47;2.30;;;0.20;;
52396;SDS011;38322;53.108;6.308;2022-07-23T07:43:13;1.25;;;0.20;;
52396;SDS011;38322;53.108;6.308;2022-07-23T07:45:39;0.35;;;0.30;;
52396;SDS011;38322;53.108;6.308;2022-07-23T07:48:05;1.73;;;0.47;;
52396;SDS011;38322;53.108;6.308;2022-07-23T07:50:31;0.55;;;0.15;;
52396;SDS011;38322;53.108;6.308;2022-07-23T07:52:56;1.02;;;0.25;;
52396;SDS011;38322;53.108;6.308;2022-07-23T07:55:22;1.45;;;0.20;;
52396;SDS011;38322;53.108;6.308;2022-07-23T07:57:48;0.80;;;0.30;;
52396;SDS011;38322;53.108;6.308;2022-07-23T08:00:14;0.38;;;0.10;;
52396;SDS011;38322;53.108;6.308;2022-07-23T08:05:34;0.52;;;0.30;;
52396;SDS011;38322;53.108;6.308;2022-07-23T08:07:59;0.82;;;0.10;;
52396;SDS011;38322;53.108;6.308;2022-07-23T08:10:26;0.82;;;0.20;;
52396;SDS011;38322;53.108;6.308;2022-07-23T08:12:54;2.47;;;0.20;;
52396;SDS011;38322;53.108;6.308;2022-07-23T08:15:24;1.83;;;0.57;;
52396;SDS011;38322;53.108;6.308;2022-07-23T08:17:53;2.83;;;0.20;;
52396;SDS011;38322;53.108;6.308;2022-07-23T08:20:19;2.63;;;0.20;;
52396;SDS011;38322;53.108;6.308;2022-07-23T08:22:48;1.63;;;0.13;;
52396;SDS011;38322;53.108;6.308;2022-07-23T08:25:20;0.45;;;0.20;;
52396;SDS011;38322;53.108;6.308;2022-07-23T08:27:47;0.45;;;0.10;;
52396;SDS011;38322;53.108;6.308;2022-07-23T08:30:14;2.17;;;0.10;;
52396;SDS011;38322;53.108;6.308;2022-07-23T08:32:55;1.98;;;0.30;;
52396;SDS011;38322;53.108;6.308;2022-07-23T08:35:24;0.80;;;0.20;;
52396;SDS011;38322;53.108;6.308;2022-07-23T08:37:53;3.20;;;0.20;;
52396;SDS011;38322;53.108;6.308;2022-07-23T08:40:19;2.72;;;0.43;;
52396;SDS011;38322;53.108;6.308;2022-07-23T08:42:49;1.70;;;0.40;;
52396;SDS011;38322;53.108;6.308;2022-07-23T08:45:16;0.73;;;0.10;;
52396;SDS011;38322;53.108;6.308;2022-07-23T08:47:44;2.17;;;0.20;;
52396;SDS011;38322;53.108;6.308;2022-07-23T08:50:10;0.40;;;0.20;;
52396;SDS011;38322;53.108;6.308;2022-07-23T08:52:37;0.82;;;0.20;;
52396;SDS011;38322;53.108;6.308;2022-07-23T08:55:03;1.55;;;0.30;;
52396;SDS011;38322;53.108;6.308;2022-07-23T08:57:30;1.02;;;0.20;;
52396;SDS011;38322;53.108;6.308;2022-07-23T08:59:56;2.05;;;0.30;;
52396;SDS011;38322;53.108;6.308;2022-07-23T09:02:22;0.50;;;0.10;;
52396;SDS011;38322;53.108;6.308;2022-07-23T09:04:48;0.40;;;0.10;;
52396;SDS011;38322;53.108;6.308;2022-07-23T09:07:14;2.72;;;0.40;;
52396;SDS011;38322;53.108;6.308;2022-07-23T09:09:40;1.73;;;0.30;;
52396;SDS011;38322;53.108;6.308;2022-07-23T09:12:07;1.80;;;0.22;;
52396;SDS011;38322;53.108;6.308;2022-07-23T09:14:41;2.75;;;0.22;;
52396;SDS011;38322;53.108;6.308;2022-07-23T09:17:11;3.65;;;1.55;;
52396;SDS011;38322;53.108;6.308;2022-07-23T09:19:38;0.73;;;0.32;;
52396;SDS011;38322;53.108;6.308;2022-07-23T09:22:20;1.55;;;0.22;;
52396;SDS011;38322;53.108;6.308;2022-07-23T09:25:09;1.77;;;0.35;;
52396;SDS011;38322;53.108;6.308;2022-07-23T09:30:12;0.60;;;0.20;;
52396;SDS011;38322;53.108;6.308;2022-07-23T09:32:39;0.75;;;0.40;;
52396;SDS011;38322;53.108;6.308;2022-07-23T09:35:05;2.25;;;0.30;;
52396;SDS011;38322;53.108;6.308;2022-07-23T09:37:31;0.93;;;0.22;;
52396;SDS011;38322;53.108;6.308;2022-07-23T09:40:04;0.60;;;0.20;;
52396;SDS011;38322;53.108;6.308;2022-07-23T09:42:32;2.28;;;0.20;;
52396;SDS011;38322;53.108;6.308;2022-07-23T09:44:59;3.45;;;0.55;;
52396;SDS011;38322;53.108;6.308;2022-07-23T09:47:27;1.33;;;0.40;;
52396;SDS011;38322;53.108;6.308;2022-07-23T09:52:30;0.82;;;0.45;;
52396;SDS011;38322;53.108;6.308;2022-07-23T09:54:59;0.93;;;0.20;;
52396;SDS011;38322;53.108;6.308;2022-07-23T09:57:27;0.43;;;0.22;;
52396;SDS011;38322;53.108;6.308;2022-07-23T09:59:53;1.63;;;0.50;;
52396;SDS011;38322;53.108;6.308;2022-07-23T10:02:23;2.25;;;0.13;;
52396;SDS011;38322;53.108;6.308;2022-07-23T10:04:51;0.95;;;0.20;;
52396;SDS011;38322;53.108;6.308;2022-07-23T10:07:18;2.78;;;0.30;;
52396;SDS011;38322;53.108;6.308;2022-07-23T10:09:48;3.65;;;0.28;;
52396;SDS011;38322;53.108;6.308;2022-07-23T10:12:17;2.67;;;0.20;;
52396;SDS011;38322;53.108;6.308;2022-07-23T10:15:03;1.60;;;0.38;;
52396;SDS011;38322;53.108;6.308;2022-07-23T10:17:31;4.32;;;1.48;;
52396;SDS011;38322;53.108;6.308;2022-07-23T10:19:58;1.73;;;0.20;;
52396;SDS011;38322;53.108;6.308;2022-07-23T10:22:31;0.52;;;0.22;;
52396;SDS011;38322;53.108;6.308;2022-07-23T10:30:33;1.38;;;1.17;;
52396;SDS011;38322;53.108;6.308;2022-07-23T10:41:35;2.85;;;0.40;;
52396;SDS011;38322;53.108;6.308;2022-07-23T10:46:57;3.30;;;0.40;;
52396;SDS011;38322;53.108;6.308;2022-07-23T10:49:46;2.38;;;1.90;;
52396;SDS011;38322;53.108;6.308;2022-07-23T10:52:15;2.78;;;1.67;;
52396;SDS011;38322;53.108;6.308;2022-07-23T10:54:47;3.30;;;0.65;;
52396;SDS011;38322;53.108;6.308;2022-07-23T10:57:26;1.88;;;0.80;;
52396;SDS011;38322;53.108;6.308;2022-07-23T11:02:37;3.47;;;1.05;;
52396;SDS011;38322;53.108;6.308;2022-07-23T11:05:08;3.80;;;0.75;;
52396;SDS011;38322;53.108;6.308;2022-07-23T11:07:36;0.70;;;0.47;;
52396;SDS011;38322;53.108;6.308;2022-07-23T11:31:53;3.08;;;0.63;;
52396;SDS011;38322;53.108;6.308;2022-07-23T11:34:49;1.67;;;0.82;;
52396;SDS011;38322;53.108;6.308;2022-07-23T11:37:31;3.65;;;0.40;;
52396;SDS011;38322;53.108;6.308;2022-07-23T11:40:04;2.65;;;1.10;;
52396;SDS011;38322;53.108;6.308;2022-07-23T11:42:34;3.35;;;0.70;;
52396;SDS011;38322;53.108;6.308;2022-07-23T11:45:01;1.13;;;0.60;;
52396;SDS011;38322;53.108;6.308;2022-07-23T11:47:27;1.75;;;0.60;;
52396;SDS011;38322;53.108;6.308;2022-07-23T11:49:57;3.15;;;0.70;;
52396;SDS011;38322;53.108;6.308;2022-07-23T11:52:25;3.15;;;1.40;;
52396;SDS011;38322;53.108;6.308;2022-07-23T11:55:03;1.98;;;0.55;;
52396;SDS011;38322;53.108;6.308;2022-07-23T11:57:32;1.55;;;0.80;;
52396;SDS011;38322;53.108;6.308;2022-07-23T12:00:04;1.55;;;0.75;;
52396;SDS011;38322;53.108;6.308;2022-07-23T12:02:48;2.95;;;0.60;;
52396;SDS011;38322;53.108;6.308;2022-07-23T12:05:22;2.33;;;1.27;;
52396;SDS011;38322;53.108;6.308;2022-07-23T12:07:50;3.33;;;1.02;;
52396;SDS011;38322;53.108;6.308;2022-07-23T12:10:18;1.98;;;0.85;;
52396;SDS011;38322;53.108;6.308;2022-07-23T12:15:27;2.30;;;1.02;;
52396;SDS011;38322;53.108;6.308;2022-07-23T12:17:56;0.93;;;0.60;;
52396;SDS011;38322;53.108;6.308;2022-07-23T12:20:26;2.22;;;1.17;;
52396;SDS011;38322;53.108;6.308;2022-07-23T12:22:56;3.20;;;0.50;;
52396;SDS011;38322;53.108;6.308;2022-07-23T12:25:27;3.35;;;0.85;;
52396;SDS011;38322;53.108;6.308;2022-07-23T12:28:02;4.78;;;0.65;;
52396;SDS011;38322;53.108;6.308;2022-07-23T12:30:39;2.25;;;0.60;;
52396;SDS011;38322;53.108;6.308;2022-07-23T12:33:08;3.90;;;0.75;;
52396;SDS011;38322;53.108;6.308;2022-07-23T12:35:42;2.15;;;0.73;;
52396;SDS011;38322;53.108;6.308;2022-07-23T12:38:11;2.85;;;0.52;;
52396;SDS011;38322;53.108;6.308;2022-07-23T12:40:43;1.08;;;0.47;;
52396;SDS011;38322;53.108;6.308;2022-07-23T12:43:23;0.90;;;0.60;;
52396;SDS011;38322;53.108;6.308;2022-07-23T12:45:52;3.20;;;0.70;;
52396;SDS011;38322;53.108;6.308;2022-07-23T12:48:25;2.20;;;0.57;;
52396;SDS011;38322;53.108;6.308;2022-07-23T12:51:00;1.65;;;0.88;;
52396;SDS011;38322;53.108;6.308;2022-07-23T12:56:14;1.75;;;0.50;;
52396;SDS011;38322;53.108;6.308;2022-07-23T13:08:46;1.35;;;0.47;;
52396;SDS011;38322;53.108;6.308;2022-07-23T13:11:12;1.08;;;0.55;;
52396;SDS011;38322;53.108;6.308;2022-07-23T13:13:38;2.47;;;0.60;;
52396;SDS011;38322;53.108;6.308;2022-07-23T13:16:04;2.45;;;0.50;;
52396;SDS011;38322;53.108;6.308;2022-07-23T13:18:31;2.30;;;0.50;;
52396;SDS011;38322;53.108;6.308;2022-07-23T13:20:57;2.25;;;0.40;;
52396;SDS011;38322;53.108;6.308;2022-07-23T13:23:23;2.25;;;0.95;;
52396;SDS011;38322;53.108;6.308;2022-07-23T13:25:49;1.58;;;0.40;;
52396;SDS011;38322;53.108;6.308;2022-07-23T13:28:15;2.63;;;0.32;;
52396;SDS011;38322;53.108;6.308;2022-07-23T13:30:43;2.17;;;0.50;;
52396;SDS011;38322;53.108;6.308;2022-07-23T13:33:10;1.42;;;0.70;;
52396;SDS011;38322;53.108;6.308;2022-07-23T13:35:36;2.30;;;0.82;;
52396;SDS011;38322;53.108;6.308;2022-07-23T13:38:03;2.88;;;0.80;;
52396;SDS011;38322;53.108;6.308;2022-07-23T13:40:32;1.02;;;0.57;;
52396;SDS011;38322;53.108;6.308;2022-07-23T13:43:00;1.30;;;0.98;;
52396;SDS011;38322;53.108;6.308;2022-07-23T13:45:27;1.85;;;0.20;;
52396;SDS011;38322;53.108;6.308;2022-07-23T13:47:53;2.85;;;0.60;;
52396;SDS011;38322;53.108;6.308;2022-07-23T13:50:19;3.15;;;1.55;;
52396;SDS011;38322;53.108;6.308;2022-07-23T13:52:44;1.50;;;0.45;;
52396;SDS011;38322;53.108;6.308;2022-07-23T13:55:10;1.02;;;0.45;;
52396;SDS011;38322;53.108;6.308;2022-07-23T13:57:37;2.97;;;0.50;;
52396;SDS011;38322;53.108;6.308;2022-07-23T14:00:04;1.25;;;0.40;;
52396;SDS011;38322;53.108;6.308;2022-07-23T14:02:32;3.15;;;0.40;;
52396;SDS011;38322;53.108;6.308;2022-07-23T14:04:58;1.08;;;0.60;;
52396;SDS011;38322;53.108;6.308;2022-07-23T14:07:24;1.90;;;0.55;;
52396;SDS011;38322;53.108;6.308;2022-07-23T14:09:50;2.15;;;0.55;;
52396;SDS011;38322;53.108;6.308;2022-07-23T14:12:15;3.67;;;0.60;;
52396;SDS011;38322;53.108;6.308;2022-07-23T14:14:41;2.67;;;0.90;;
52396;SDS011;38322;53.108;6.308;2022-07-23T14:17:08;0.73;;;0.47;;
52396;SDS011;38322;53.108;6.308;2022-07-23T14:19:34;0.60;;;0.30;;
52396;SDS011;38322;53.108;6.308;2022-07-23T14:22:00;1.48;;;0.60;;
52396;SDS011;38322;53.108;6.308;2022-07-23T14:24:26;2.22;;;0.50;;
52396;SDS011;38322;53.108;6.308;2022-07-23T14:26:52;2.47;;;0.50;;
52396;SDS011;38322;53.108;6.308;2022-07-23T14:29:17;1.30;;;0.40;;
52396;SDS011;38322;53.108;6.308;2022-07-23T14:31:43;1.90;;;0.55;;
52396;SDS011;38322;53.108;6.308;2022-07-23T14:34:09;2.20;;;0.43;;
52396;SDS011;38322;53.108;6.308;2022-07-23T14:36:37;1.17;;;0.55;;
52396;SDS011;38322;53.108;6.308;2022-07-23T14:39:03;1.05;;;0.50;;
52396;SDS011;38322;53.108;6.308;2022-07-23T14:41:29;2.00;;;0.60;;
52396;SDS011;38322;53.108;6.308;2022-07-23T14:43:55;1.65;;;0.57;;
52396;SDS011;38322;53.108;6.308;2022-07-23T14:46:21;0.80;;;0.47;;
52396;SDS011;38322;53.108;6.308;2022-07-23T14:48:47;1.88;;;0.70;;
52396;SDS011;38322;53.108;6.308;2022-07-23T14:51:12;1.08;;;0.50;;
52396;SDS011;38322;53.108;6.308;2022-07-23T14:53:38;3.95;;;0.85;;
52396;SDS011;38322;53.108;6.308;2022-07-23T14:56:04;3.90;;;0.80;;
52396;SDS011;38322;53.108;6.308;2022-07-23T14:58:30;1.10;;;1.00;;
52396;SDS011;38322;53.108;6.308;2022-07-23T15:00:56;1.90;;;0.75;;
52396;SDS011;38322;53.108;6.308;2022-07-23T15:03:22;3.17;;;0.65;;
52396;SDS011;38322;53.108;6.308;2022-07-23T15:05:49;1.42;;;0.55;;
52396;SDS011;38322;53.108;6.308;2022-07-23T15:08:15;5.38;;;0.55;;
52396;SDS011;38322;53.108;6.308;2022-07-23T15:10:42;0.77;;;0.30;;
52396;SDS011;38322;53.108;6.308;2022-07-23T15:13:08;3.00;;;0.82;;
52396;SDS011;38322;53.108;6.308;2022-07-23T15:15:34;0.88;;;0.38;;
52396;SDS011;38322;53.108;6.308;2022-07-23T15:17:59;4.60;;;0.73;;
52396;SDS011;38322;53.108;6.308;2022-07-23T15:20:25;2.95;;;0.38;;
52396;SDS011;38322;53.108;6.308;2022-07-23T15:22:51;2.30;;;0.40;;
52396;SDS011;38322;53.108;6.308;2022-07-23T15:25:17;3.30;;;0.22;;
52396;SDS011;38322;53.108;6.308;2022-07-23T15:27:43;1.90;;;0.52;;
52396;SDS011;38322;53.108;6.308;2022-07-23T15:30:09;0.75;;;0.50;;
52396;SDS011;38322;53.108;6.308;2022-07-23T15:32:35;2.92;;;1.15;;
52396;SDS011;38322;53.108;6.308;2022-07-23T15:35:01;0.43;;;0.30;;
52396;SDS011;38322;53.108;6.308;2022-07-23T15:37:30;0.57;;;0.22;;
52396;SDS011;38322;53.108;6.308;2022-07-23T15:39:56;0.80;;;0.38;;
52396;SDS011;38322;53.108;6.308;2022-07-23T15:42:22;1.15;;;0.45;;
52396;SDS011;38322;53.108;6.308;2022-07-23T15:44:48;1.10;;;0.40;;
52396;SDS011;38322;53.108;6.308;2022-07-23T15:47:15;0.50;;;0.30;;
52396;SDS011;38322;53.108;6.308;2022-07-23T15:49:42;2.50;;;0.50;;
52396;SDS011;38322;53.108;6.308;2022-07-23T15:52:08;1.30;;;0.60;;
52396;SDS011;38322;53.108;6.308;2022-07-23T15:54:37;2.60;;;0.55;;
52396;SDS011;38322;53.108;6.308;2022-07-23T15:57:04;1.23;;;0.50;;
52396;SDS011;38322;53.108;6.308;2022-07-23T15:59:30;2.28;;;0.57;;
52396;SDS011;38322;53.108;6.308;2022-07-23T16:01:57;1.35;;;0.20;;
52396;SDS011;38322;53.108;6.308;2022-07-23T16:04:23;2.55;;;0.65;;
52396;SDS011;38322;53.108;6.308;2022-07-23T16:06:50;1.40;;;0.50;;
52396;SDS011;38322;53.108;6.308;2022-07-23T16:09:16;0.70;;;0.32;;
52396;SDS011;38322;53.108;6.308;2022-07-23T16:11:43;1.20;;;0.30;;
52396;SDS011;38322;53.108;6.308;2022-07-23T16:14:08;0.60;;;0.20;;
52396;SDS011;38322;53.108;6.308;2022-07-23T16:16:34;0.50;;;0.32;;
52396;SDS011;38322;53.108;6.308;2022-07-23T16:19:00;1.25;;;0.50;;
52396;SDS011;38322;53.108;6.308;2022-07-23T16:21:26;0.47;;;0.30;;
52396;SDS011;38322;53.108;6.308;2022-07-23T16:23:53;1.17;;;0.30;;
52396;SDS011;38322;53.108;6.308;2022-07-23T16:26:18;1.02;;;0.30;;
52396;SDS011;38322;53.108;6.308;2022-07-23T16:28:46;1.45;;;0.40;;
52396;SDS011;38322;53.108;6.308;2022-07-23T16:31:12;2.05;;;0.40;;
52396;SDS011;38322;53.108;6.308;2022-07-23T16:33:38;1.25;;;0.32;;
52396;SDS011;38322;53.108;6.308;2022-07-23T16:36:05;2.22;;;0.30;;
52396;SDS011;38322;53.108;6.308;2022-07-23T16:38:37;2.58;;;0.43;;
52396;SDS011;38322;53.108;6.308;2022-07-23T16:41:04;1.95;;;0.40;;
52396;SDS011;38322;53.108;6.308;2022-07-23T16:43:31;1.52;;;0.40;;
52396;SDS011;38322;53.108;6.308;2022-07-23T16:45:58;1.80;;;0.43;;
52396;SDS011;38322;53.108;6.308;2022-07-23T16:48:27;0.85;;;0.30;;
52396;SDS011;38322;53.108;6.308;2022-07-23T16:50:53;1.00;;;0.40;;
52396;SDS011;38322;53.108;6.308;2022-07-23T16:53:18;1.67;;;0.47;;
52396;SDS011;38322;53.108;6.308;2022-07-23T16:55:44;0.70;;;0.15;;
52396;SDS011;38322;53.108;6.308;2022-07-23T16:58:10;0.77;;;0.40;;
52396;SDS011;38322;53.108;6.308;2022-07-23T17:00:36;1.30;;;0.63;;
52396;SDS011;38322;53.108;6.308;2022-07-23T17:03:02;2.10;;;0.70;;
52396;SDS011;38322;53.108;6.308;2022-07-23T17:05:28;0.50;;;0.45;;
52396;SDS011;38322;53.108;6.308;2022-07-23T17:07:54;0.88;;;0.32;;
52396;SDS011;38322;53.108;6.308;2022-07-23T17:10:20;2.53;;;0.30;;
52396;SDS011;38322;53.108;6.308;2022-07-23T17:12:47;1.20;;;0.47;;
52396;SDS011;38322;53.108;6.308;2022-07-23T17:15:16;0.98;;;0.20;;
52396;SDS011;38322;53.108;6.308;2022-07-23T17:17:45;0.85;;;0.35;;
52396;SDS011;38322;53.108;6.308;2022-07-23T17:20:11;1.50;;;0.45;;
52396;SDS011;38322;53.108;6.308;2022-07-23T17:22:37;2.60;;;0.63;;
52396;SDS011;38322;53.108;6.308;2022-07-23T17:25:05;1.05;;;0.38;;
52396;SDS011;38322;53.108;6.308;2022-07-23T17:27:39;1.80;;;0.52;;
52396;SDS011;38322;53.108;6.308;2022-07-23T17:30:09;1.15;;;0.50;;
52396;SDS011;38322;53.108;6.308;2022-07-23T17:32:36;2.20;;;0.70;;
52396;SDS011;38322;53.108;6.308;2022-07-23T17:35:04;1.70;;;0.55;;
52396;SDS011;38322;53.108;6.308;2022-07-23T17:37:31;1.95;;;0.50;;
52396;SDS011;38322;53.108;6.308;2022-07-23T17:39:57;1.85;;;0.30;;
52396;SDS011;38322;53.108;6.308;2022-07-23T17:42:23;1.27;;;0.65;;
52396;SDS011;38322;53.108;6.308;2022-07-23T17:44:49;1.05;;;0.30;;
52396;SDS011;38322;53.108;6.308;2022-07-23T17:47:15;1.75;;;0.45;;
52396;SDS011;38322;53.108;6.308;2022-07-23T17:49:41;1.10;;;0.52;;
52396;SDS011;38322;53.108;6.308;2022-07-23T17:52:06;1.33;;;0.77;;
52396;SDS011;38322;53.108;6.308;2022-07-23T17:54:33;2.42;;;0.50;;
52396;SDS011;38322;53.108;6.308;2022-07-23T17:56:59;1.15;;;0.40;;
52396;SDS011;38322;53.108;6.308;2022-07-23T17:59:25;1.42;;;0.50;;
52396;SDS011;38322;53.108;6.308;2022-07-23T18:01:51;2.63;;;0.57;;
52396;SDS011;38322;53.108;6.308;2022-07-23T18:04:18;2.22;;;0.40;;
52396;SDS011;38322;53.108;6.308;2022-07-23T18:06:45;3.08;;;0.70;;
52396;SDS011;38322;53.108;6.308;2022-07-23T18:09:11;3.20;;;0.55;;
52396;SDS011;38322;53.108;6.308;2022-07-23T18:11:38;2.85;;;0.70;;
52396;SDS011;38322;53.108;6.308;2022-07-23T18:14:05;3.00;;;0.60;;
52396;SDS011;38322;53.108;6.308;2022-07-23T18:16:32;1.73;;;0.57;;
52396;SDS011;38322;53.108;6.308;2022-07-23T18:18:58;1.45;;;0.65;;
52396;SDS011;38322;53.108;6.308;2022-07-23T18:21:25;4.80;;;0.98;;
52396;SDS011;38322;53.108;6.308;2022-07-23T18:23:51;1.45;;;0.43;;
52396;SDS011;38322;53.108;6.308;2022-07-23T18:26:17;1.85;;;0.75;;
52396;SDS011;38322;53.108;6.308;2022-07-23T18:28:43;2.20;;;0.63;;
52396;SDS011;38322;53.108;6.308;2022-07-23T18:31:10;2.33;;;0.98;;
52396;SDS011;38322;53.108;6.308;2022-07-23T18:33:36;2.08;;;0.90;;
52396;SDS011;38322;53.108;6.308;2022-07-23T18:36:02;1.90;;;1.40;;
52396;SDS011;38322;53.108;6.308;2022-07-23T18:38:28;5.05;;;0.80;;
52396;SDS011;38322;53.108;6.308;2022-07-23T18:40:54;1.98;;;1.00;;
52396;SDS011;38322;53.108;6.308;2022-07-23T18:43:20;3.47;;;1.40;;
52396;SDS011;38322;53.108;6.308;2022-07-23T18:45:47;1.42;;;0.57;;
52396;SDS011;38322;53.108;6.308;2022-07-23T18:48:13;2.25;;;0.80;;
52396;SDS011;38322;53.108;6.308;2022-07-23T18:50:40;4.18;;;0.93;;
52396;SDS011;38322;53.108;6.308;2022-07-23T18:53:09;1.48;;;0.82;;
52396;SDS011;38322;53.108;6.308;2022-07-23T18:55:36;1.77;;;0.98;;
52396;SDS011;38322;53.108;6.308;2022-07-23T18:58:03;1.13;;;0.70;;
52396;SDS011;38322;53.108;6.308;2022-07-23T19:00:30;3.13;;;0.82;;
52396;SDS011;38322;53.108;6.308;2022-07-23T19:02:57;3.10;;;1.02;;
52396;SDS011;38322;53.108;6.308;2022-07-23T19:05:24;1.92;;;1.10;;
52396;SDS011;38322;53.108;6.308;2022-07-23T19:07:50;3.17;;;1.27;;
52396;SDS011;38322;53.108;6.308;2022-07-23T19:10:16;4.28;;;1.55;;
52396;SDS011;38322;53.108;6.308;2022-07-23T19:12:43;3.58;;;0.90;;
52396;SDS011;38322;53.108;6.308;2022-07-23T19:15:09;2.08;;;1.10;;
52396;SDS011;38322;53.108;6.308;2022-07-23T19:17:35;2.40;;;1.00;;
52396;SDS011;38322;53.108;6.308;2022-07-23T19:20:03;3.53;;;0.60;;
52396;SDS011;38322;53.108;6.308;2022-07-23T19:22:31;3.60;;;0.73;;
52396;SDS011;38322;53.108;6.308;2022-07-23T19:24:57;2.03;;;0.52;;
52396;SDS011;38322;53.108;6.308;2022-07-23T19:27:24;2.10;;;0.80;;
52396;SDS011;38322;53.108;6.308;2022-07-23T19:29:49;1.42;;;0.80;;
52396;SDS011;38322;53.108;6.308;2022-07-23T19:32:15;1.65;;;0.50;;
52396;SDS011;38322;53.108;6.308;2022-07-23T19:34:41;1.80;;;0.85;;
52396;SDS011;38322;53.108;6.308;2022-07-23T19:37:07;3.60;;;0.98;;
52396;SDS011;38322;53.108;6.308;2022-07-23T19:39:37;4.03;;;0.85;;
52396;SDS011;38322;53.108;6.308;2022-07-23T19:42:04;3.95;;;0.88;;
52396;SDS011;38322;53.108;6.308;2022-07-23T19:44:30;1.27;;;0.60;;
52396;SDS011;38322;53.108;6.308;2022-07-23T19:46:56;1.55;;;0.75;;
52396;SDS011;38322;53.108;6.308;2022-07-23T19:49:22;3.25;;;0.80;;
52396;SDS011;38322;53.108;6.308;2022-07-23T19:51:47;1.95;;;0.73;;
52396;SDS011;38322;53.108;6.308;2022-07-23T19:54:14;1.88;;;0.70;;
52396;SDS011;38322;53.108;6.308;2022-07-23T19:56:40;1.95;;;0.70;;
52396;SDS011;38322;53.108;6.308;2022-07-23T19:59:06;0.80;;;0.50;;
